M I D A S
Marine Information and Data Acquisition System
Tripno 1653 of the Zeeleeuw from 2009-03-04 08:25:30 to 2009-03-04 17:20:54
Back to CruiseResearch ActivitiesStationsMapUnderway DataData graphs

EquipmentUnitsComment
TimeDGPSUTC
LatitudeDGPSDM.mWGS84
LongitudeDGPSDM.mWGS84
HeadingGyrodeg 
SOGDGPSknotsSpeed over ground
COGDGPSdegCourse over ground
DepthEcho soundermeters200 kHz
Missing or incorrect values are displayed as -999
Navigation data collected by the RV Zeeleeuw from 2009-03-04 08:07:23 to 2009-03-04 17:24:59
Time Latitude Longitude Heading SOG COG Depth
2009-03-04 08:08:28 51°13.663 2°55.959 125.8 -999 186 6
2009-03-04 08:09:28 51°13.664 2°55.959 125.3 -999 178 -999
2009-03-04 08:10:29 51°13.664 2°55.959 125.6 0.1 178 -999
2009-03-04 08:11:28 51°13.664 2°55.959 126 -999 312 -999
2009-03-04 08:12:27 51°13.663 2°55.959 125.8 0.1 21 6
2009-03-04 08:13:28 51°13.661 2°55.959 125.7 -999 240 -999
2009-03-04 08:14:28 51°13.664 2°55.959 125.7 -999 229 -999
2009-03-04 08:15:27 51°13.665 2°55.96 125.9 -999 19 -999
2009-03-04 08:16:27 51°13.664 2°55.959 126 -999 275 5.9
2009-03-04 08:17:28 51°13.664 2°55.959 125.7 -999 21 5.9
2009-03-04 08:18:26 51°13.664 2°55.959 125.7 -999 58 5.9
2009-03-04 08:19:28 51°13.664 2°55.96 125.7 -999 335 -999
2009-03-04 08:20:28 51°13.664 2°55.959 125.6 -999 332 -999
2009-03-04 08:21:27 51°13.663 2°55.959 125.7 -999 204 -999
2009-03-04 08:22:28 51°13.663 2°55.96 126.5 -999 127 -999
2009-03-04 08:23:27 51°13.663 2°55.96 127.8 -999 296 -999
2009-03-04 08:24:28 51°13.662 2°55.959 129 -999 311 -999
2009-03-04 08:25:27 51°13.662 2°55.96 125.1 -999 203 -999
2009-03-04 08:26:26 51°13.661 2°55.96 115.5 0.1 186 -999
2009-03-04 08:27:27 51°13.666 2°55.942 109.6 2.4 295 -999
2009-03-04 08:28:28 51°13.679 2°55.886 96 1.4 295 -999
2009-03-04 08:29:28 51°13.685 2°55.825 80.7 3 268 -999
2009-03-04 08:30:28 51°13.684 2°55.777 53 0.7 10 10.8
2009-03-04 08:31:27 51°13.7 2°55.78 1.1 0.2 286 -999
2009-03-04 08:32:28 51°13.734 2°55.742 320.2 5.6 319 -999
2009-03-04 08:33:27 51°13.839 2°55.632 333 8.6 333 9.7
2009-03-04 08:34:24 51°13.968 2°55.534 337.3 9.3 337 9.8
2009-03-04 08:35:25 51°14.109 2°55.429 336.6 9.3 334 9.9
2009-03-04 08:36:28 51°14.246 2°55.287 321.6 9.6 318 10.8
2009-03-04 08:37:26 51°14.353 2°55.099 311.8 10.2 309 10.6
2009-03-04 08:38:24 51°14.462 2°54.875 309.4 11.6 307 10.6
2009-03-04 08:39:23 51°14.571 2°54.609 304.6 12.3 303 10.3
2009-03-04 08:40:24 51°14.676 2°54.322 300.1 12.3 300 10.3
2009-03-04 08:41:24 51°14.772 2°54.037 298.4 12.1 298 9.7
2009-03-04 08:42:23 51°14.87 2°53.763 297.7 12.1 297 9.7
2009-03-04 08:43:24 51°14.951 2°53.465 293.3 12.1 292 9.8
2009-03-04 08:44:24 51°15.029 2°53.166 293.7 12.2 293 9.8
2009-03-04 08:45:24 51°15.108 2°52.867 293.9 12.3 293 10.4
2009-03-04 08:46:23 51°15.18 2°52.569 289.4 12.3 288 10.8
2009-03-04 08:47:24 51°15.245 2°52.254 289 12.3 288 11.2
2009-03-04 08:48:24 51°15.309 2°51.944 289 12.4 288 11.7
2009-03-04 08:49:23 51°15.35 2°51.636 272.1 12 271 12.2
2009-03-04 08:50:24 51°15.344 2°51.308 268.1 12.3 270 12.4
2009-03-04 08:51:24 51°15.353 2°50.982 274.5 12.4 276 12.5
2009-03-04 08:52:24 51°15.371 2°50.656 275.3 12.3 276 12.6
2009-03-04 08:53:23 51°15.393 2°50.337 275.3 12.4 276 12.7
2009-03-04 08:54:24 51°15.414 2°50.007 274.9 12.2 276 12.8
2009-03-04 08:55:24 51°15.439 2°49.686 275.7 12.2 276 12.8
2009-03-04 08:56:24 51°15.46 2°49.365 275.3 12.3 276 12.9
2009-03-04 08:57:23 51°15.48 2°49.049 274.3 12.2 275 12.3
2009-03-04 08:58:23 51°15.503 2°48.73 277.1 12.1 277 10.4
2009-03-04 08:59:24 51°15.531 2°48.405 278.2 12.2 279 10.1
2009-03-04 09:00:24 51°15.561 2°48.085 277.8 12.3 279 10.8
2009-03-04 09:01:24 51°15.59 2°47.763 277 12.2 278 11.9
2009-03-04 09:02:24 51°15.619 2°47.444 277 12.2 277 13.5
2009-03-04 09:03:23 51°15.646 2°47.129 276.9 12.2 278 14.6
2009-03-04 09:04:24 51°15.672 2°46.8 277.3 12.3 278 15.7
2009-03-04 09:05:24 51°15.701 2°46.477 277.4 12.2 278 16.6
2009-03-04 09:06:23 51°15.749 2°46.166 291.8 12.3 294 16.7
2009-03-04 09:07:23 51°15.856 2°45.884 309.2 12.4 309 14.4
2009-03-04 09:08:23 51°15.991 2°45.636 313.5 12.4 314 11.4
2009-03-04 09:09:24 51°16.131 2°45.392 312.5 12.2 312 10.4
2009-03-04 09:10:23 51°16.265 2°45.153 311.5 12.3 310 10.8
2009-03-04 09:11:24 51°16.402 2°44.903 311.7 12.3 311 9.8
2009-03-04 09:12:23 51°16.534 2°44.659 311.1 12.5 310 11
2009-03-04 09:13:23 51°16.669 2°44.408 311.3 12.5 311 13.6
2009-03-04 09:14:24 51°16.803 2°44.149 310 12.3 309 14.8
2009-03-04 09:15:24 51°16.933 2°43.897 310.5 12.3 310 14.9
2009-03-04 09:16:23 51°17.06 2°43.646 310.8 12.3 310 14.2
2009-03-04 09:17:24 51°17.192 2°43.39 310.4 12.4 311 14.1
2009-03-04 09:18:23 51°17.319 2°43.139 310 12.4 309 11.9
2009-03-04 09:19:24 51°17.453 2°42.882 311.3 12.3 311 10.4
2009-03-04 09:20:23 51°17.583 2°42.632 310.3 12.4 309 21.2
2009-03-04 09:21:24 51°17.713 2°42.371 309 12.4 306 23.1
2009-03-04 09:22:24 51°17.845 2°42.117 310.3 12.5 311 23.9
2009-03-04 09:23:24 51°17.978 2°41.864 310.5 12.2 311 23.5
2009-03-04 09:24:24 51°18.108 2°41.612 310 12.3 308 22.8
2009-03-04 09:25:24 51°18.238 2°41.361 309.9 12.2 312 20.2
2009-03-04 09:26:24 51°18.368 2°41.107 312.2 12.5 310 18.3
2009-03-04 09:27:24 51°18.498 2°40.851 311 12.4 310 16.4
2009-03-04 09:28:24 51°18.637 2°40.606 316.1 12.3 316 13.1
2009-03-04 09:29:24 51°18.783 2°40.374 316.3 12.4 314 20.3
2009-03-04 09:30:24 51°18.924 2°40.134 311.6 12.4 316 21.5
2009-03-04 09:31:24 51°19.06 2°39.891 310 12.2 308 23.1
2009-03-04 09:32:24 51°19.192 2°39.643 307.6 12.1 308 25.4
2009-03-04 09:33:24 51°19.322 2°39.393 310.9 12.4 310 28.7
2009-03-04 09:34:24 51°19.452 2°39.144 310.5 12.1 310 28.9
2009-03-04 09:35:24 51°19.583 2°38.894 309.7 12.3 309 26.2
2009-03-04 09:36:24 51°19.715 2°38.646 311 12.1 311 23.7
2009-03-04 09:37:24 51°19.842 2°38.393 309.6 12.5 307 23.2
2009-03-04 09:38:24 51°19.97 2°38.136 310.5 12.2 308 21.1
2009-03-04 09:39:24 51°20.098 2°37.883 311.5 12.5 308 21.8
2009-03-04 09:40:24 51°20.227 2°37.629 311 12.4 306 22.2
2009-03-04 09:41:25 51°20.36 2°37.378 310.8 12.4 312 22.4
2009-03-04 09:42:24 51°20.484 2°37.128 311.7 12.4 312 22.5
2009-03-04 09:43:24 51°20.614 2°36.874 311.6 12.2 309 21.2
2009-03-04 09:44:24 51°20.74 2°36.618 310.2 12.4 311 20.9
2009-03-04 09:45:24 51°20.873 2°36.363 311.5 12.6 305 21.9
2009-03-04 09:46:24 51°21.003 2°36.11 308.2 11.9 307 25.7
2009-03-04 09:47:24 51°21.131 2°35.856 310.1 12.3 308 29
2009-03-04 09:48:24 51°21.285 2°35.646 330.3 12.4 332 34.4
2009-03-04 09:49:24 51°21.471 2°35.503 338.9 12.5 337 30.4
2009-03-04 09:50:24 51°21.66 2°35.371 340.4 12.3 334 30.1
2009-03-04 09:51:24 51°21.852 2°35.245 339.6 12.3 340 29.7
2009-03-04 09:52:24 51°22.045 2°35.116 339 12.4 343 29.7
2009-03-04 09:53:24 51°22.233 2°34.984 338.7 12.3 335 28.3
2009-03-04 09:54:24 51°22.423 2°34.858 339.8 12.5 339 25.6
2009-03-04 09:55:24 51°22.615 2°34.727 339.3 12.2 337 24.2
2009-03-04 09:56:24 51°22.809 2°34.603 342.6 12.4 336 30.2
2009-03-04 09:57:24 51°22.999 2°34.473 339 12.4 337 32.4
2009-03-04 09:58:24 51°23.189 2°34.345 339.9 12.4 339 32.3
2009-03-04 09:59:24 51°23.376 2°34.209 335.7 12.2 326 31.6
2009-03-04 10:00:24 51°23.524 2°33.997 308.2 12.1 302 31.3
2009-03-04 10:01:24 51°23.585 2°33.699 274.2 11.5 271 30.6
2009-03-04 10:02:24 51°23.58 2°33.385 269.1 12 270 29.9
2009-03-04 10:03:24 51°23.592 2°33.06 276.5 11.9 278 30.6
2009-03-04 10:04:24 51°23.619 2°32.743 278.6 12.1 279 30.6
2009-03-04 10:05:24 51°23.626 2°32.424 265.7 12.1 264 24.2
2009-03-04 10:06:24 51°23.597 2°32.106 259.9 12.3 262 23.4
2009-03-04 10:07:24 51°23.579 2°31.784 266.8 12.1 270 21.1
2009-03-04 10:08:24 51°23.578 2°31.458 270.5 12.2 271 23.4
2009-03-04 10:09:24 51°23.59 2°31.134 273.9 12.3 274 30.8
2009-03-04 10:10:24 51°23.603 2°30.808 274.4 12.1 278 31.9
2009-03-04 10:11:24 51°23.617 2°30.486 274 12.1 275 33.1
2009-03-04 10:12:24 51°23.63 2°30.218 272.4 8.7 275 34.8
2009-03-04 10:13:24 51°23.645 2°30.05 277.4 5.2 282 32.6
2009-03-04 10:14:24 51°23.682 2°29.952 318.7 4 320 32.4
2009-03-04 10:15:24 51°23.745 2°29.943 34.3 4.2 33 33.1
2009-03-04 10:16:24 51°23.782 2°30.038 80.7 4.8 70 32.9
2009-03-04 10:17:24 51°23.799 2°30.135 88.4 3 77 32.4
2009-03-04 10:18:24 51°23.809 2°30.202 98.4 2.2 74 32.3
2009-03-04 10:19:24 51°23.818 2°30.256 105.3 1.9 86 32.7
2009-03-04 10:20:24 51°23.823 2°30.306 106.4 2.2 83 32.8
2009-03-04 10:21:24 51°23.822 2°30.378 108.3 3.1 96 32.3
2009-03-04 10:22:24 51°23.82 2°30.466 99.6 3.6 84 32.4
2009-03-04 10:23:24 51°23.834 2°30.561 82.7 3.8 72 32.3
2009-03-04 10:24:24 51°23.86 2°30.657 80.6 3.8 69 32.4
2009-03-04 10:25:24 51°23.876 2°30.754 86.9 3.8 74 32.6
2009-03-04 10:26:24 51°23.898 2°30.849 72.7 4 58 32.4
2009-03-04 10:27:24 51°23.937 2°30.933 59.1 3.9 47 33.3
2009-03-04 10:28:24 51°23.987 2°31.002 50.9 3.7 42 32.8
2009-03-04 10:29:24 51°24.029 2°31.067 58 3.4 44 33
2009-03-04 10:30:24 51°24.065 2°31.132 63 3.2 52 32.7
2009-03-04 10:31:24 51°24.099 2°31.197 61.9 3.1 48 29.1
2009-03-04 10:32:24 51°24.135 2°31.259 55.5 3.4 40 31.3
2009-03-04 10:33:24 51°24.178 2°31.313 46.2 3.3 35 30.7
2009-03-04 10:34:24 51°24.225 2°31.355 36.7 3.3 27 32.1
2009-03-04 10:35:24 51°24.276 2°31.391 29.6 3.4 21 31.6
2009-03-04 10:36:24 51°24.329 2°31.428 40.7 3.4 31 33.2
2009-03-04 10:37:24 51°24.375 2°31.476 41.8 3.4 29 29.4
2009-03-04 10:38:24 51°24.425 2°31.52 38.1 3.4 24 31.3
2009-03-04 10:39:24 51°24.477 2°31.559 36.2 3.5 25 31.2
2009-03-04 10:40:24 51°24.522 2°31.611 49.7 3.3 41 33.5
2009-03-04 10:41:24 51°24.558 2°31.672 62.4 3.1 52 28.6
2009-03-04 10:42:24 51°24.587 2°31.738 68.2 3 62 30
2009-03-04 10:43:24 51°24.607 2°31.806 77.5 2.8 64 32.6
2009-03-04 10:44:24 51°24.62 2°31.872 85.8 2.6 76 31.8
2009-03-04 10:45:25 51°24.628 2°31.942 92.3 2.6 80 29.5
2009-03-04 10:46:24 51°24.633 2°32.009 96.6 2.4 89 27.1
2009-03-04 10:47:24 51°24.632 2°32.071 104.6 2.3 96 25.9
2009-03-04 10:48:24 51°24.632 2°32.113 105.3 0.9 89 29.4
2009-03-04 10:49:24 51°24.636 2°32.13 110.3 0.4 60 28.2
2009-03-04 10:50:24 51°24.643 2°32.135 110.5 0.7 11 28.2
2009-03-04 10:51:24 51°24.654 2°32.134 109 0.6 353 28.1
2009-03-04 10:52:24 51°24.649 2°32.155 138.7 2.1 145 27.4
2009-03-04 10:53:24 51°24.606 2°32.152 203.5 4.9 218 28.6
2009-03-04 10:54:24 51°24.519 2°31.976 229.9 10.1 236 29.4
2009-03-04 10:55:24 51°24.409 2°31.739 230.3 11.8 235 29.2
2009-03-04 10:56:24 51°24.3 2°31.466 237.8 12.3 240 33.1
2009-03-04 10:57:24 51°24.2 2°31.177 239.8 12.4 241 31.4
2009-03-04 10:58:24 51°24.102 2°30.891 238.9 12.1 243 32.8
2009-03-04 10:59:25 51°23.995 2°30.608 234.3 12.1 235 31.8
2009-03-04 11:00:24 51°23.871 2°30.362 225.7 12 229 32.3
2009-03-04 11:01:24 51°23.741 2°30.119 231 12.3 235 32.4
2009-03-04 11:02:24 51°23.638 2°29.839 243 12.3 247 32.4
2009-03-04 11:03:24 51°23.575 2°29.57 253.4 7.3 258 33.4
2009-03-04 11:04:24 51°23.574 2°29.446 276.9 2.5 283 33.3
2009-03-04 11:05:24 51°23.584 2°29.414 295.5 0.8 316 32.7
2009-03-04 11:06:24 51°23.594 2°29.399 294.2 0.6 323 32.9
2009-03-04 11:07:24 51°23.603 2°29.394 299.9 0.4 346 32.9
2009-03-04 11:08:25 51°23.61 2°29.394 309.3 0.3 348 33
2009-03-04 11:09:24 51°23.616 2°29.393 310.9 0.6 6 33.3
2009-03-04 11:10:24 51°23.632 2°29.375 324.6 2.3 323 32.8
2009-03-04 11:11:24 51°23.679 2°29.356 17.5 3.1 13 33.4
2009-03-04 11:12:24 51°23.705 2°29.418 94.4 2.8 91 33.3
2009-03-04 11:13:24 51°23.7 2°29.499 95.2 3.2 90 32.8
2009-03-04 11:14:24 51°23.701 2°29.591 98 3.5 96 32.8
2009-03-04 11:15:24 51°23.701 2°29.676 92.1 2.6 85 33.1
2009-03-04 11:16:24 51°23.708 2°29.727 83.5 1.5 65 32.3
2009-03-04 11:17:24 51°23.716 2°29.751 93.4 0.7 56 31.9
2009-03-04 11:18:24 51°23.721 2°29.761 101.3 0.3 48 32
2009-03-04 11:19:24 51°23.727 2°29.762 109.5 0.4 357 32
2009-03-04 11:20:24 51°23.733 2°29.757 114.7 0.6 326 32.5
2009-03-04 11:21:24 51°23.741 2°29.75 113.5 0.7 337 32.1
2009-03-04 11:22:24 51°23.75 2°29.743 108.6 0.3 25 32.3
2009-03-04 11:23:24 51°23.743 2°29.771 128.8 1.9 132 32.3
2009-03-04 11:24:24 51°23.727 2°29.798 132.2 0.8 135 32.8
2009-03-04 11:25:24 51°23.723 2°29.804 133.2 0.2 130 32.8
2009-03-04 11:26:24 51°23.725 2°29.803 125.2 0.5 351 33.2
2009-03-04 11:27:24 51°23.731 2°29.799 116.2 0.5 326 31.9
2009-03-04 11:28:24 51°23.737 2°29.792 110.6 0.4 334 31.4
2009-03-04 11:29:24 51°23.745 2°29.781 102.7 0.5 312 31.8
2009-03-04 11:30:24 51°23.753 2°29.769 98.8 0.6 314 32.1
2009-03-04 11:31:25 51°23.761 2°29.756 92.2 0.7 322 32.1
2009-03-04 11:32:24 51°23.767 2°29.748 97.5 0.2 6 32.2
2009-03-04 11:33:24 51°23.767 2°29.759 119 1 134 32.3
2009-03-04 11:34:24 51°23.751 2°29.778 143.9 1.4 159 32
2009-03-04 11:35:24 51°23.73 2°29.796 143.6 1.4 151 29.4
2009-03-04 11:36:24 51°23.717 2°29.807 142.1 0.6 145 32.9
2009-03-04 11:37:24 51°23.713 2°29.809 134.4 0.1 267 32.8
2009-03-04 11:38:25 51°23.715 2°29.807 127.1 0.3 277 32.8
2009-03-04 11:39:24 51°23.72 2°29.799 113.2 0.4 318 32.8
2009-03-04 11:40:25 51°23.726 2°29.787 100.2 0.6 301 32.1
2009-03-04 11:41:24 51°23.731 2°29.773 93.2 0.7 298 32.4
2009-03-04 11:42:25 51°23.737 2°29.759 91.9 0.6 303 32.5
2009-03-04 11:43:24 51°23.742 2°29.746 94.4 0.4 300 32.5
2009-03-04 11:44:24 51°23.743 2°29.742 108 0.2 91 32.1
2009-03-04 11:45:24 51°23.738 2°29.755 115.1 1 127 32.6
2009-03-04 11:46:24 51°23.724 2°29.782 119.8 1.2 129 30.5
2009-03-04 11:47:25 51°23.715 2°29.795 124.4 0.4 137 32.8
2009-03-04 11:48:24 51°23.709 2°29.798 128.8 0.4 198 32.3
2009-03-04 11:49:24 51°23.706 2°29.795 129.2 -999 245 32.3
2009-03-04 11:50:24 51°23.706 2°29.788 126.8 0.7 304 35.3
2009-03-04 11:51:24 51°23.713 2°29.768 108.1 0.7 287 32.2
2009-03-04 11:52:24 51°23.716 2°29.759 87 0.4 268 31.8
2009-03-04 11:53:24 51°23.718 2°29.748 90.5 0.5 311 32.3
2009-03-04 11:54:24 51°23.72 2°29.738 101.6 0.4 276 32.4
2009-03-04 11:55:24 51°23.72 2°29.727 109.4 0.4 299 33.5
2009-03-04 11:56:25 51°23.722 2°29.713 111.9 0.7 281 32.4
2009-03-04 11:57:25 51°23.724 2°29.697 111.4 0.7 301 32.8
2009-03-04 11:58:25 51°23.726 2°29.681 107.3 0.6 288 33.2
2009-03-04 11:59:24 51°23.727 2°29.673 99.4 0.2 75 33.1
2009-03-04 12:00:24 51°23.736 2°29.709 52 2.4 45 32.8
2009-03-04 12:01:25 51°23.792 2°29.801 50.2 7 47 32.3
2009-03-04 12:02:24 51°23.892 2°29.977 50.7 10 48 32.3
2009-03-04 12:03:24 51°24.005 2°30.182 50.3 10.3 50 33
2009-03-04 12:04:24 51°24.118 2°30.387 49.3 10.2 46 32.7
2009-03-04 12:05:25 51°24.233 2°30.593 50 10.1 45 32.9
2009-03-04 12:06:24 51°24.342 2°30.796 50.7 10.4 52 34.1
2009-03-04 12:07:24 51°24.455 2°31 50.1 10.4 48 32.6
2009-03-04 12:08:23 51°24.565 2°31.204 51.2 10.2 51 33.5
2009-03-04 12:09:25 51°24.683 2°31.416 50.9 10.2 51 30.9
2009-03-04 12:10:24 51°24.795 2°31.618 49.1 10.2 51 33.7
2009-03-04 12:11:24 51°24.907 2°31.821 50.8 10.2 50 32.5
2009-03-04 12:12:23 51°25.02 2°32.024 50.2 10.9 50 31.2
2009-03-04 12:13:23 51°25.142 2°32.247 50.2 11.3 51 32
2009-03-04 12:14:24 51°25.266 2°32.472 49.4 11.4 52 25.2
2009-03-04 12:15:24 51°25.39 2°32.693 50.7 11 50 24.5
2009-03-04 12:16:25 51°25.515 2°32.919 49 11.3 43 25.8
2009-03-04 12:17:23 51°25.631 2°33.129 50.4 10.8 50 27.6
2009-03-04 12:18:24 51°25.755 2°33.359 50.3 11.6 45 21.7
2009-03-04 12:19:25 51°25.877 2°33.587 52.1 10.8 52 22.1
2009-03-04 12:20:23 51°25.995 2°33.799 48.9 11.2 45 22.5
2009-03-04 12:21:25 51°26.122 2°34.025 49.4 10.9 49 20.4
2009-03-04 12:22:24 51°26.24 2°34.243 50.9 11.2 50 22.6
2009-03-04 12:23:24 51°26.364 2°34.468 50.1 11.3 50 21.7
2009-03-04 12:24:23 51°26.482 2°34.689 51.2 11.1 48 25.3
2009-03-04 12:25:25 51°26.605 2°34.917 48.3 10.9 51 25.8
2009-03-04 12:26:24 51°26.72 2°35.14 50.8 11.3 52 27.7
2009-03-04 12:27:24 51°26.843 2°35.36 50.2 10.9 50 28
2009-03-04 12:28:25 51°26.964 2°35.593 52.5 10.9 53 28.9
2009-03-04 12:29:25 51°27.072 2°35.834 57.1 11.3 59 32
2009-03-04 12:30:24 51°27.18 2°36.069 53.9 10.9 55 31.7
2009-03-04 12:31:24 51°27.288 2°36.313 54.6 11.7 59 31.9
2009-03-04 12:32:25 51°27.398 2°36.557 54.5 11.2 53 32.4
2009-03-04 12:33:24 51°27.513 2°36.782 46 11.2 44 31.7
2009-03-04 12:34:24 51°27.643 2°36.996 49.9 11.2 51 32.9
2009-03-04 12:35:25 51°27.757 2°37.236 56.4 11.2 56 35.2
2009-03-04 12:36:25 51°27.858 2°37.487 59.7 11.2 61 35.9
2009-03-04 12:37:24 51°27.952 2°37.74 58.8 10.9 61 36.3
2009-03-04 12:38:24 51°28.046 2°37.997 58.3 11.1 62 37.7
2009-03-04 12:39:25 51°28.139 2°38.262 64.3 11.3 63 36.7
2009-03-04 12:40:23 51°28.223 2°38.517 62.1 11.3 62 34.6
2009-03-04 12:41:24 51°28.298 2°38.796 68.4 11.4 69 37.2
2009-03-04 12:42:25 51°28.37 2°39.081 67.4 11.5 69 37.1
2009-03-04 12:43:25 51°28.444 2°39.359 65.6 11.5 67 35.2
2009-03-04 12:44:24 51°28.516 2°39.633 66.9 11.4 68 34.6
2009-03-04 12:45:24 51°28.593 2°39.907 65.8 11.4 69 34.8
2009-03-04 12:46:25 51°28.668 2°40.191 66.3 11.3 69 34.4
2009-03-04 12:47:23 51°28.739 2°40.461 66 11.3 68 39.3
2009-03-04 12:48:24 51°28.806 2°40.751 69.8 11.5 73 34.9
2009-03-04 12:49:24 51°28.876 2°41.034 67.6 11.3 69 33.6
2009-03-04 12:50:25 51°28.948 2°41.321 69.6 11.4 72 32.5
2009-03-04 12:51:25 51°29.017 2°41.605 69.7 11.6 68 32.1
2009-03-04 12:52:24 51°29.085 2°41.883 69.3 11.3 65 32.5
2009-03-04 12:53:25 51°29.156 2°42.171 66.8 11.3 66 31.7
2009-03-04 12:54:23 51°29.221 2°42.441 69 11.1 71 30.5
2009-03-04 12:55:25 51°29.295 2°42.726 68 11.2 70 30.8
2009-03-04 12:56:24 51°29.363 2°42.999 68.2 11.6 70 31.3
2009-03-04 12:57:24 51°29.428 2°43.283 70.5 11 70 30.4
2009-03-04 12:58:23 51°29.494 2°43.559 68.2 11.3 70 30.3
2009-03-04 12:59:25 51°29.562 2°43.847 68.5 11.2 74 30.8
2009-03-04 13:00:24 51°29.629 2°44.119 68.3 11.4 69 31.9
2009-03-04 13:01:24 51°29.696 2°44.401 69.8 11.1 67 31.6
2009-03-04 13:02:25 51°29.765 2°44.683 70.8 11.3 69 30.2
2009-03-04 13:03:25 51°29.834 2°44.957 69.6 10.8 65 28
2009-03-04 13:04:24 51°29.899 2°45.235 67.9 11.3 72 29.8
2009-03-04 13:05:24 51°29.966 2°45.517 67.1 11.5 70 27.4
2009-03-04 13:06:25 51°30.035 2°45.804 67.4 11.3 69 26.3
2009-03-04 13:07:25 51°30.104 2°46.083 65.4 11.1 63 26.5
2009-03-04 13:08:24 51°30.172 2°46.359 67.3 11.5 69 26.3
2009-03-04 13:09:25 51°30.238 2°46.644 68.3 11.3 70 22.8
2009-03-04 13:10:25 51°30.304 2°46.925 68.7 11.2 68 26
2009-03-04 13:11:24 51°30.37 2°47.2 68 11.1 70 24
2009-03-04 13:12:24 51°30.435 2°47.481 71.2 11.6 69 27.1
2009-03-04 13:13:25 51°30.492 2°47.775 72.2 11.5 74 27.1
2009-03-04 13:14:25 51°30.55 2°48.063 71.5 11.3 70 25.9
2009-03-04 13:15:24 51°30.607 2°48.346 69.4 11.4 75 27.6
2009-03-04 13:16:25 51°30.662 2°48.641 72.4 11.3 73 25.9
2009-03-04 13:17:24 51°30.714 2°48.926 72.1 11.2 72 26.6
2009-03-04 13:18:25 51°30.77 2°49.221 70.6 11.3 76 27.3
2009-03-04 13:19:24 51°30.825 2°49.504 71.5 11.2 77 26.2
2009-03-04 13:20:25 51°30.883 2°49.796 69 11.4 71 26.5
2009-03-04 13:21:23 51°30.936 2°50.076 70.5 11.4 72 26.8
2009-03-04 13:22:25 51°30.993 2°50.375 71.8 11.5 76 25.1
2009-03-04 13:23:24 51°31.05 2°50.66 70.7 11.5 75 24.7
2009-03-04 13:24:25 51°31.109 2°50.952 69.9 11.2 68 24.1
2009-03-04 13:25:25 51°31.162 2°51.24 71.9 11.4 72 23.6
2009-03-04 13:26:25 51°31.201 2°51.537 81.3 11.5 86 25
2009-03-04 13:27:25 51°31.226 2°51.839 80.4 11.6 81 22.3
2009-03-04 13:28:24 51°31.265 2°52.13 75.5 11.3 75 21.8
2009-03-04 13:29:25 51°31.305 2°52.395 74.2 8.5 78 21.8
2009-03-04 13:30:24 51°31.324 2°52.559 82.9 4.2 89 22.1
2009-03-04 13:31:24 51°31.315 2°52.629 98.5 1.2 122 21.9
2009-03-04 13:32:25 51°31.308 2°52.635 106.2 0.2 212 21.7
2009-03-04 13:33:25 51°31.307 2°52.615 95.4 1 265 278.3
2009-03-04 13:34:27 51°31.304 2°52.598 84.3 0.4 231 21.6
2009-03-04 13:35:25 51°31.301 2°52.595 87.7 0.2 168 21.5
2009-03-04 13:36:24 51°31.297 2°52.6 99.1 0.5 138 21.5
2009-03-04 13:37:24 51°31.291 2°52.608 104.2 0.5 140 21.6
2009-03-04 13:38:25 51°31.285 2°52.618 106.5 0.5 128 21.2
2009-03-04 13:39:25 51°31.279 2°52.629 104.3 0.4 126 21.5
2009-03-04 13:40:24 51°31.277 2°52.638 93.4 0.3 111 21.1
2009-03-04 13:41:25 51°31.277 2°52.645 86.7 0.3 95 20.9
2009-03-04 13:42:25 51°31.278 2°52.65 83 0.2 54 20.7
2009-03-04 13:43:24 51°31.278 2°52.656 76.3 0.1 73 21
2009-03-04 13:44:24 51°31.279 2°52.659 74 0.3 96 20.8
2009-03-04 13:45:25 51°31.279 2°52.662 70.7 0.1 60 21.6
2009-03-04 13:46:25 51°31.28 2°52.664 68.4 0.1 55 21.8
2009-03-04 13:47:24 51°31.281 2°52.664 68.4 -999 226 21.8
2009-03-04 13:48:25 51°31.28 2°52.661 70.3 0.2 242 21.4
2009-03-04 13:49:25 51°31.279 2°52.66 73.4 0.2 312 21
2009-03-04 13:50:25 51°31.279 2°52.659 73.4 0.1 200 20.9
2009-03-04 13:51:24 51°31.278 2°52.657 73.6 0.2 185 21
2009-03-04 13:52:24 51°31.278 2°52.656 72.6 -999 282 21
2009-03-04 13:53:25 51°31.278 2°52.658 71.9 -999 277 21
2009-03-04 13:54:25 51°31.279 2°52.659 72 0.1 46 20.9
2009-03-04 13:55:25 51°31.279 2°52.661 71.3 0.1 63 21.2
2009-03-04 13:56:25 51°31.279 2°52.661 69.3 -999 213 21
2009-03-04 13:57:25 51°31.279 2°52.66 70 -999 159 21.2
2009-03-04 13:58:25 51°31.278 2°52.66 67.5 0.1 256 21.1
2009-03-04 13:59:25 51°31.279 2°52.664 63.2 0.3 67 21.8
2009-03-04 14:00:25 51°31.281 2°52.667 60.3 -999 60 22.1
2009-03-04 14:01:25 51°31.281 2°52.668 59 0.1 116 22.1
2009-03-04 14:02:25 51°31.281 2°52.67 55.3 0.1 63 22.4
2009-03-04 14:03:25 51°31.283 2°52.672 52.3 0.1 83 22.6
2009-03-04 14:04:25 51°31.284 2°52.673 51.6 0.1 336 22.7
2009-03-04 14:05:25 51°31.284 2°52.672 50.6 -999 230 22.7
2009-03-04 14:06:25 51°31.287 2°52.677 48.3 0.3 19 22.7
2009-03-04 14:07:25 51°31.291 2°52.68 44.1 0.2 32 22.6
2009-03-04 14:08:25 51°31.293 2°52.68 42.9 0.1 352 22.4
2009-03-04 14:09:25 51°31.293 2°52.679 45.7 0.1 268 22.5
2009-03-04 14:10:25 51°31.293 2°52.677 47 -999 92 22.6
2009-03-04 14:11:25 51°31.293 2°52.678 50 0.1 145 22.6
2009-03-04 14:12:25 51°31.291 2°52.677 52.1 0.2 250 22.8
2009-03-04 14:13:25 51°31.291 2°52.67 42.6 0.2 258 22.9
2009-03-04 14:14:25 51°31.292 2°52.662 30.4 0.3 297 22.7
2009-03-04 14:15:25 51°31.297 2°52.657 15.3 0.4 342 22.8
2009-03-04 14:16:24 51°31.303 2°52.652 1.3 0.4 333 22.8
2009-03-04 14:17:25 51°31.31 2°52.648 355.2 0.5 349 22.7
2009-03-04 14:18:25 51°31.317 2°52.642 346.5 0.8 345 22.6
2009-03-04 14:19:25 51°31.346 2°52.662 45.6 3.2 54 20.3
2009-03-04 14:20:25 51°31.385 2°52.821 73.8 8.6 75 22.9
2009-03-04 14:21:25 51°31.429 2°53.089 72.1 11.5 74 21.1
2009-03-04 14:22:25 51°31.484 2°53.389 69.4 11.6 74 20.1
2009-03-04 14:23:25 51°31.563 2°53.676 64.1 11.8 64 21.5
2009-03-04 14:24:24 51°31.655 2°53.946 55.8 12 57 19.9
2009-03-04 14:25:24 51°31.777 2°54.191 48.7 11.8 52 21.8
2009-03-04 14:26:24 51°31.903 2°54.431 49.5 11.1 51 22.3
2009-03-04 14:27:25 51°31.997 2°54.626 52.9 7.2 56 22.8
2009-03-04 14:28:24 51°32.011 2°54.74 88 3 99 22
2009-03-04 14:29:24 51°32.001 2°54.8 98.3 2 113 22.3
2009-03-04 14:30:24 51°31.989 2°54.84 108.1 1.6 123 21.6
2009-03-04 14:31:24 51°31.976 2°54.868 117.4 1.1 128 20.8
2009-03-04 14:32:24 51°31.964 2°54.888 122.8 1 129 21.1
2009-03-04 14:33:24 51°31.954 2°54.903 125.1 0.8 135 20.7
2009-03-04 14:34:24 51°31.946 2°54.917 126.4 0.6 135 20.4
2009-03-04 14:35:24 51°31.939 2°54.928 126.3 0.5 131 20.5
2009-03-04 14:36:26 51°31.932 2°54.94 126.2 0.6 152 19.8
2009-03-04 14:37:24 51°31.926 2°54.952 126.4 0.5 111 19.6
2009-03-04 14:38:24 51°31.921 2°54.963 124.2 0.5 125 19.3
2009-03-04 14:39:24 51°31.915 2°54.975 124.5 0.6 130 18.3
2009-03-04 14:40:25 51°31.91 2°54.988 122.7 0.6 131 18.5
2009-03-04 14:41:24 51°31.906 2°55.001 120.9 0.6 118 20
2009-03-04 14:42:24 51°31.902 2°55.014 118 0.5 116 20.4
2009-03-04 14:43:25 51°31.897 2°55.026 116.9 0.6 125 21
2009-03-04 14:44:24 51°31.894 2°55.038 116.9 0.5 113 21.5
2009-03-04 14:45:24 51°31.89 2°55.053 116.9 0.6 104 21.7
2009-03-04 14:46:24 51°31.887 2°55.067 115.7 0.6 113 22.2
2009-03-04 14:47:24 51°31.884 2°55.079 113.5 0.6 104 21.9
2009-03-04 14:48:24 51°31.881 2°55.093 113.3 0.5 110 21.9
2009-03-04 14:49:25 51°31.879 2°55.107 112.6 0.6 107 21.6
2009-03-04 14:50:26 51°31.876 2°55.122 112.8 0.6 103 21.1
2009-03-04 14:51:24 51°31.873 2°55.139 115.5 0.7 112 19.8
2009-03-04 14:52:26 51°31.866 2°55.166 117.6 1.6 124 19.7
2009-03-04 14:53:24 51°31.846 2°55.213 126.3 2.3 126 20.7
2009-03-04 14:54:24 51°31.819 2°55.267 130.9 2.9 130 21
2009-03-04 14:55:24 51°31.782 2°55.329 136.7 3.5 135 21.1
2009-03-04 14:56:24 51°31.74 2°55.392 140.3 3.3 138 20.2
2009-03-04 14:57:24 51°31.7 2°55.45 138.8 3.1 134 19.1
2009-03-04 14:58:24 51°31.665 2°55.513 134.7 3.1 135 17.9
2009-03-04 14:59:26 51°31.63 2°55.573 134.8 2.9 135 18
2009-03-04 15:00:24 51°31.597 2°55.631 135.7 3.2 134 19.1
2009-03-04 15:01:26 51°31.559 2°55.699 134.5 3.4 133 19.6
2009-03-04 15:02:24 51°31.522 2°55.766 134.2 3.5 129 20.1
2009-03-04 15:03:26 51°31.483 2°55.839 135.6 3.5 133 20.4
2009-03-04 15:04:26 51°31.445 2°55.911 134.7 3.5 130 19.9
2009-03-04 15:05:26 51°31.406 2°55.983 136.1 3.6 130 17.4
2009-03-04 15:06:26 51°31.368 2°56.055 135.4 3.5 128 19.4
2009-03-04 15:07:24 51°31.333 2°56.127 133.8 3.6 129 21.2
2009-03-04 15:08:26 51°31.294 2°56.202 138 3.5 132 22.8
2009-03-04 15:09:24 51°31.257 2°56.271 136.7 3.5 129 29.6
2009-03-04 15:10:26 51°31.216 2°56.341 148 3.4 139 31.8
2009-03-04 15:11:24 51°31.174 2°56.387 167 3.1 155 34.9
2009-03-04 15:12:26 51°31.127 2°56.409 188 2.7 173 35.5
2009-03-04 15:13:26 51°31.089 2°56.397 214.3 2.3 209 35.1
2009-03-04 15:14:26 51°31.064 2°56.349 242.5 2.5 249 32.7
2009-03-04 15:15:26 51°31.054 2°56.281 252.8 2.8 261 35.4
2009-03-04 15:16:24 51°31.052 2°56.21 257.7 2.8 269 36
2009-03-04 15:17:26 51°31.054 2°56.132 262.6 2.9 274 35.8
2009-03-04 15:18:24 51°31.06 2°56.058 265.7 2.8 274 33.9
2009-03-04 15:19:26 51°31.062 2°55.982 269.6 2.8 274 34.1
2009-03-04 15:20:25 51°31.078 2°55.916 303.1 2.8 312 30
2009-03-04 15:21:26 51°31.123 2°55.885 339.5 3.1 350 27.3
2009-03-04 15:22:26 51°31.178 2°55.881 351.8 3.4 6 22.7
2009-03-04 15:23:24 51°31.23 2°55.901 8.3 3.1 19 18.9
2009-03-04 15:24:26 51°31.271 2°55.936 16.2 2.5 34 18.8
2009-03-04 15:25:24 51°31.299 2°55.971 17.4 2.1 40 20.9
2009-03-04 15:26:25 51°31.325 2°56.005 14.5 1.8 43 17.3
2009-03-04 15:27:24 51°31.345 2°56.04 28.2 1.8 53 20.7
2009-03-04 15:28:25 51°31.362 2°56.09 58.9 2.3 69 19.7
2009-03-04 15:29:24 51°31.37 2°56.138 71.1 1.7 78 16.8
2009-03-04 15:30:24 51°31.375 2°56.184 76 1.8 81 20.3
2009-03-04 15:31:25 51°31.379 2°56.226 83.6 1.5 83 21.5
2009-03-04 15:32:24 51°31.382 2°56.263 87 1.3 82 22.6
2009-03-04 15:33:26 51°31.385 2°56.299 93.2 1.3 84 22.8
2009-03-04 15:34:24 51°31.386 2°56.331 99.5 1.1 88 23.8
2009-03-04 15:35:25 51°31.389 2°56.363 106.1 1.2 85 23.6
2009-03-04 15:36:24 51°31.39 2°56.397 116.7 1.4 90 24.3
2009-03-04 15:37:25 51°31.386 2°56.439 132.2 1.7 104 25.3
2009-03-04 15:38:25 51°31.376 2°56.484 149.6 1.8 115 28
2009-03-04 15:39:25 51°31.344 2°56.515 195.2 3.5 182 30.3
2009-03-04 15:40:25 51°31.227 2°56.5 187.2 9.6 181 34.6
2009-03-04 15:41:24 51°31.053 2°56.492 186.4 11.3 180 35
2009-03-04 15:42:25 51°30.864 2°56.481 188.3 11.3 183 34.1
2009-03-04 15:43:24 51°30.684 2°56.466 174 11.3 164 33.4
2009-03-04 15:44:25 51°30.498 2°56.49 184.2 11.3 176 32.8
2009-03-04 15:45:25 51°30.308 2°56.507 182.4 11.4 178 32.5
2009-03-04 15:46:25 51°30.122 2°56.49 192.5 11.2 187 32.1
2009-03-04 15:47:25 51°29.937 2°56.453 191.9 11.2 187 30.4
2009-03-04 15:48:25 51°29.75 2°56.426 190.3 11.2 185 29.7
2009-03-04 15:49:25 51°29.564 2°56.395 192 11.2 186 28.7
2009-03-04 15:50:24 51°29.38 2°56.366 191 11.4 186 27
2009-03-04 15:51:26 51°29.187 2°56.331 191.3 11.3 188 25.8
2009-03-04 15:52:24 51°29.006 2°56.3 191.6 11.3 186 25.6
2009-03-04 15:53:24 51°28.818 2°56.26 192.1 11.5 185 25.3
2009-03-04 15:54:25 51°28.629 2°56.22 192.8 11.3 189 27.2
2009-03-04 15:55:24 51°28.449 2°56.188 189.8 10.8 185 28.4
2009-03-04 15:56:25 51°28.265 2°56.154 191.2 11 187 28.5
2009-03-04 15:57:24 51°28.087 2°56.122 190.1 11.1 185 29.2
2009-03-04 15:58:25 51°27.901 2°56.094 191 11 185 29.4
2009-03-04 15:59:24 51°27.723 2°56.065 191.1 11 186 29.7
2009-03-04 16:00:25 51°27.537 2°56.033 190.3 11 187 31.7
2009-03-04 16:01:25 51°27.357 2°55.995 193.1 10.9 188 30.9
2009-03-04 16:02:25 51°27.177 2°55.958 191.3 11 186 28.9
2009-03-04 16:03:25 51°26.993 2°55.926 191 11.1 187 30.9
2009-03-04 16:04:24 51°26.812 2°55.888 190.4 11.1 185 29.2
2009-03-04 16:05:26 51°26.624 2°55.855 190.5 11 186 27.2
2009-03-04 16:06:24 51°26.448 2°55.824 190.6 11.1 185 25.6
2009-03-04 16:07:25 51°26.262 2°55.791 192.8 11.1 189 21.5
2009-03-04 16:08:25 51°26.078 2°55.755 191.6 11.2 186 20.1
2009-03-04 16:09:25 51°25.893 2°55.718 191.4 11.3 186 21
2009-03-04 16:10:25 51°25.708 2°55.694 190.5 11.2 184 20.2
2009-03-04 16:11:25 51°25.522 2°55.667 190.4 11.2 186 19
2009-03-04 16:12:25 51°25.337 2°55.629 192.7 11.3 187 18.2
2009-03-04 16:13:24 51°25.155 2°55.601 190.5 11.2 185 21.1
2009-03-04 16:14:25 51°24.97 2°55.568 190.7 10.8 184 24.4
2009-03-04 16:15:24 51°24.794 2°55.543 191.3 10.6 188 25.4
2009-03-04 16:16:25 51°24.617 2°55.496 194.1 10.7 189 25.9
2009-03-04 16:17:25 51°24.443 2°55.439 195.2 10.7 189 26.2
2009-03-04 16:18:25 51°24.267 2°55.394 192.9 10.8 188 24.7
2009-03-04 16:19:25 51°24.091 2°55.346 194.2 10.7 190 24
2009-03-04 16:20:25 51°23.916 2°55.291 195.6 10.7 192 23.3
2009-03-04 16:21:25 51°23.739 2°55.245 193.4 10.7 188 22.1
2009-03-04 16:22:24 51°23.565 2°55.199 193.3 10.8 188 19.2
2009-03-04 16:23:25 51°23.387 2°55.15 196 10.6 190 20.9
2009-03-04 16:24:24 51°23.214 2°55.114 193.9 10.6 187 24.5
2009-03-04 16:25:25 51°23.035 2°55.079 193.9 10.6 188 21.9
2009-03-04 16:26:25 51°22.857 2°55.045 194.6 10.8 187 21.5
2009-03-04 16:27:24 51°22.681 2°55.007 195.6 10.9 189 21.9
2009-03-04 16:28:25 51°22.501 2°54.962 194.2 10.9 187 21
2009-03-04 16:29:24 51°22.324 2°54.92 195 10.8 189 21.2
2009-03-04 16:30:25 51°22.143 2°54.876 193.2 10.8 187 21.1
2009-03-04 16:31:24 51°21.968 2°54.841 195.3 10.7 189 19.9
2009-03-04 16:32:25 51°21.791 2°54.79 195.7 10.6 191 19.8
2009-03-04 16:33:25 51°21.616 2°54.748 195.1 10.6 191 19.7
2009-03-04 16:34:25 51°21.441 2°54.704 193.1 10.7 188 19.5
2009-03-04 16:35:25 51°21.264 2°54.664 194.8 10.7 190 19.3
2009-03-04 16:36:26 51°21.085 2°54.615 192.8 10.8 188 19.1
2009-03-04 16:37:25 51°20.911 2°54.569 195.2 10.8 191 18.9
2009-03-04 16:38:24 51°20.736 2°54.524 193.2 10.9 189 18.6
2009-03-04 16:39:25 51°20.555 2°54.48 193.9 10.8 190 18.2
2009-03-04 16:40:25 51°20.378 2°54.432 193.9 10.8 190 17.6
2009-03-04 16:41:25 51°20.2 2°54.379 196.9 10.8 192 16.8
2009-03-04 16:42:25 51°20.021 2°54.329 193.5 10.9 189 15.9
2009-03-04 16:43:25 51°19.843 2°54.282 193.4 10.9 189 15.3
2009-03-04 16:44:25 51°19.662 2°54.234 195.5 10.9 191 15
2009-03-04 16:45:26 51°19.482 2°54.181 193.4 10.9 189 14.7
2009-03-04 16:46:25 51°19.305 2°54.135 194.9 10.9 192 14.4
2009-03-04 16:47:24 51°19.131 2°54.075 194.6 10.9 191 14.3
2009-03-04 16:48:25 51°18.949 2°54.016 194.5 10.9 190 14.1
2009-03-04 16:49:25 51°18.771 2°53.957 196.8 10.9 193 13.8
2009-03-04 16:50:25 51°18.594 2°53.891 197.7 10.9 194 13.6
2009-03-04 16:51:25 51°18.418 2°53.829 195.7 10.9 192 13.3
2009-03-04 16:52:25 51°18.241 2°53.769 195.5 10.9 191 13
2009-03-04 16:53:25 51°18.064 2°53.706 195.9 11 193 12.7
2009-03-04 16:54:25 51°17.887 2°53.637 196.4 11 194 12.3
2009-03-04 16:55:25 51°17.71 2°53.565 198.1 10.9 196 12.1
2009-03-04 16:56:25 51°17.535 2°53.485 198.1 10.9 196 12
2009-03-04 16:57:25 51°17.36 2°53.408 198.2 10.9 195 11.6
2009-03-04 16:58:25 51°17.183 2°53.34 193.9 11.1 191 11.1
2009-03-04 16:59:25 51°17 2°53.313 185.3 11 180 10.6
2009-03-04 17:00:25 51°16.815 2°53.322 184.1 11.2 178 13.6
2009-03-04 17:01:25 51°16.631 2°53.368 176 11.2 167 14
2009-03-04 17:02:25 51°16.447 2°53.428 176 11.2 169 14.2
2009-03-04 17:03:25 51°16.264 2°53.49 174.3 11.3 168 14.1
2009-03-04 17:04:25 51°16.08 2°53.556 174.4 11.4 168 14
2009-03-04 17:05:25 51°15.896 2°53.619 175 11.2 168 13.8
2009-03-04 17:06:25 51°15.723 2°53.738 150 11.9 143 13.6
2009-03-04 17:07:25 51°15.572 2°53.938 143.5 10.9 138 13
2009-03-04 17:08:25 51°15.445 2°54.12 143.8 10 138 12.4
2009-03-04 17:09:26 51°15.323 2°54.288 146.2 9 138 11.8
2009-03-04 17:10:25 51°15.221 2°54.429 150.8 7.5 142 11.4
2009-03-04 17:11:25 51°15.131 2°54.54 151.6 6.5 144 11.1
2009-03-04 17:12:25 51°15.044 2°54.647 152.4 6.6 142 11.1
2009-03-04 17:13:25 51°14.927 2°54.769 157.7 10.2 151 11.6
2009-03-04 17:14:25 51°14.75 2°54.868 171.2 11.6 165 11.9
2009-03-04 17:15:25 51°14.562 2°54.922 169.8 11.6 164 12.3
2009-03-04 17:16:25 51°14.39 2°55.074 148.2 12.1 143 13.3
2009-03-04 17:17:25 51°14.246 2°55.278 135.8 10.9 136 4.7
2009-03-04 17:18:29 51°14.112 2°55.419 152.9 7.6 153 -999
2009-03-04 17:19:28 51°13.995 2°55.507 154.8 8.3 156 -999
2009-03-04 17:20:30 51°13.86 2°55.602 156.1 8.6 155 -999
2009-03-04 17:21:29 51°13.744 2°55.715 135.8 7.2 138 -999
2009-03-04 17:22:29 51°13.688 2°55.832 114.9 4.6 118 -999
2009-03-04 17:23:30 51°13.668 2°55.928 99.6 2.7 98 -999
2009-03-04 17:24:30 51°13.665 2°55.954 122.2 0.5 126 -999